Time;durP1;ratioP1;P1;durP2;ratioP2;P2;SDS_P1;SDS_P2;PMS_P1;PMS_P2;Temp;Humidity;BMP_temperature;BMP_pressure;BME280_temperature;BME280_humidity;BME280_pressure;Samples;Min_cycle;Max_cycle;Signal;HPM_P1;HPM_P2
2024/04/06 00:00:37;;;;;;;6.00;1.13;;;;;;;11.87;100.00;98404.56;5067830;28;20048;-63
2024/04/06 00:03:04;;;;;;;20.58;2.85;;;;;;;11.88;100.00;98410.91;5071183;28;20505;-62
2024/04/06 00:05:31;;;;;;;3.70;1.73;;;;;;;11.89;100.00;98395.84;5071863;28;20083;-62
2024/04/06 00:07:57;;;;;;;7.78;2.00;;;;;;;11.89;100.00;98390.28;5064842;28;20521;-61
2024/04/06 00:10:23;;;;;;;12.90;2.95;;;;;;;11.87;100.00;98387.16;5071281;28;20040;-61
2024/04/06 00:12:50;;;;;;;12.32;2.83;;;;;;;11.87;100.00;98387.94;5069360;28;20513;-62
2024/04/06 00:15:16;;;;;;;7.00;1.50;;;;;;;11.88;100.00;98377.66;5062832;28;20048;-61
2024/04/06 00:17:42;;;;;;;12.00;2.60;;;;;;;11.88;100.00;98372.09;5057819;28;20417;-61
2024/04/06 00:20:09;;;;;;;10.85;1.90;;;;;;;11.89;100.00;98368.09;5071069;28;20536;-61
2024/04/06 00:22:35;;;;;;;4.68;1.17;;;;;;;11.87;100.00;98365.75;5068271;28;20055;-61
2024/04/06 00:25:01;;;;;;;10.07;1.80;;;;;;;11.89;100.00;98359.78;5069608;28;20043;-61
2024/04/06 00:27:28;;;;;;;8.15;1.52;;;;;;;11.89;100.00;98345.94;5070442;28;20052;-62
2024/04/06 00:29:54;;;;;;;6.13;1.55;;;;;;;11.86;100.00;98344.78;5056130;28;20055;-61
2024/04/06 00:32:20;;;;;;;7.85;1.23;;;;;;;11.87;100.00;98342.78;5069567;28;20047;-61
2024/04/06 00:34:47;;;;;;;7.30;1.60;;;;;;;11.89;100.00;98323.75;5071020;28;20056;-62
2024/04/06 00:37:13;;;;;;;11.27;1.90;;;;;;;11.89;100.00;98324.53;5068123;28;20051;-62
2024/04/06 00:39:40;;;;;;;11.75;2.13;;;;;;;11.91;100.00;98326.91;5070307;28;20051;-63
2024/04/06 00:42:10;;;;;;;6.93;1.65;;;;;;;11.91;100.00;98315.81;5069601;28;20052;-62
2024/04/06 00:44:36;;;;;;;14.55;3.38;;;;;;;11.91;100.00;98304.75;5086315;28;20036;-62
2024/04/06 00:47:03;;;;;;;9.75;1.60;;;;;;;11.91;100.00;98305.53;5071176;28;20048;-64
2024/04/06 00:49:30;;;;;;;4.80;1.30;;;;;;;11.91;100.00;98304.75;5069299;28;20051;-63
2024/04/06 00:51:56;;;;;;;4.45;1.25;;;;;;;11.92;100.00;98311.84;5068478;28;20056;-63
2024/04/06 00:54:23;;;;;;;7.05;1.30;;;;;;;11.92;100.00;98300.75;5069851;28;20044;-62
2024/04/06 00:56:50;;;;;;;5.97;1.20;;;;;;;11.94;100.00;98301.16;5069203;28;20044;-62
2024/04/06 00:59:17;;;;;;;9.15;1.48;;;;;;;11.93;100.00;98299.56;5070164;28;20047;-61
2024/04/06 01:01:44;;;;;;;4.00;1.15;;;;;;;11.93;100.00;98283.72;5069600;28;20048;-62
2024/04/06 01:04:10;;;;;;;7.80;1.27;;;;;;;11.95;100.00;98283.28;5065971;28;20422;-62
2024/04/06 01:06:36;;;;;;;6.53;1.45;;;;;;;11.93;100.00;98280.16;5059400;28;20059;-62
2024/04/06 01:09:03;;;;;;;6.57;1.38;;;;;;;11.92;100.00;98289.66;5065159;28;20049;-62
2024/04/06 01:11:29;;;;;;;6.35;1.23;;;;;;;11.91;100.00;98268.69;5065593;28;20048;-61
2024/04/06 01:13:56;;;;;;;7.85;1.88;;;;;;;11.90;100.00;98276.22;5065679;28;20040;-62
2024/04/06 01:16:22;;;;;;;14.55;2.67;;;;;;;11.89;100.00;98263.53;5052650;28;20049;-62
2024/04/06 01:18:48;;;;;;;14.15;2.78;;;;;;;11.86;100.00;98283.00;5066480;28;20607;-61
2024/04/06 01:21:14;;;;;;;15.73;3.10;;;;;;;11.86;100.00;98269.91;5065907;28;20593;-61
2024/04/06 01:23:43;;;;;;;17.33;5.07;;;;;;;11.88;100.00;98272.28;5065515;28;20060;-62
2024/04/06 01:26:09;;;;;;;13.80;3.08;;;;;;;11.90;100.00;98237.41;5054483;28;20052;-63
2024/04/06 01:28:35;;;;;;;16.42;3.03;;;;;;;11.92;100.00;98223.13;5062013;28;20055;-62
2024/04/06 01:31:02;;;;;;;14.75;3.20;;;;;;;11.94;100.00;98237.38;5066098;28;20059;-63
2024/04/06 01:33:28;;;;;;;22.88;3.97;;;;;;;11.93;100.00;98244.91;5062552;28;20053;-63
2024/04/06 01:35:54;;;;;;;18.98;4.53;;;;;;;11.94;100.00;98237.38;5064949;28;20151;-62
2024/04/06 01:38:21;;;;;;;20.40;4.53;;;;;;;11.92;100.00;98223.13;5065559;28;20055;-62
2024/04/06 01:40:47;;;;;;;21.58;5.38;;;;;;;11.92;100.00;98239.75;5065488;28;20055;-62
2024/04/06 01:43:14;;;;;;;26.13;5.47;;;;;;;11.90;100.00;98236.63;5066337;28;20060;-63
2024/04/06 01:45:40;;;;;;;39.83;6.68;;;;;;;11.87;100.00;98227.13;5063318;28;20055;-63
2024/04/06 01:48:06;;;;;;;31.27;6.68;;;;;;;11.85;100.00;98214.91;5065099;28;20056;-62
2024/04/06 01:50:32;;;;;;;33.58;5.88;;;;;;;11.84;100.00;98191.91;5065517;28;20048;-63
2024/04/06 01:52:59;;;;;;;30.92;5.78;;;;;;;11.84;100.00;98199.44;5062916;28;20044;-62
2024/04/06 01:55:25;;;;;;;29.20;5.90;;;;;;;11.83;100.00;98204.22;5065290;28;20044;-62
2024/04/06 01:57:51;;;;;;;37.45;6.13;;;;;;;11.82;100.00;98238.69;5064960;28;20047;-62
2024/04/06 02:00:17;;;;;;;26.30;5.57;;;;;;;11.84;100.00;98232.72;5064349;28;20442;-63
2024/04/06 02:02:44;;;;;;;37.35;7.03;;;;;;;11.85;100.00;98198.25;5059591;28;20056;-62
2024/04/06 02:05:10;;;;;;;30.67;5.78;;;;;;;11.86;100.00;98167.34;5065288;28;20044;-62
2024/04/06 02:07:36;;;;;;;34.47;7.47;;;;;;;11.87;100.00;98198.63;5065274;28;20558;-62
2024/04/06 02:10:03;;;;;;;36.38;7.60;;;;;;;11.89;100.00;98199.00;5065130;28;20533;-62
2024/04/06 02:12:29;;;;;;;32.67;6.65;;;;;;;11.86;100.00;98183.97;5063901;28;20063;-62
2024/04/06 02:14:55;;;;;;;31.83;6.22;;;;;;;11.86;100.00;98133.31;5060209;28;20041;-62
2024/04/06 02:17:22;;;;;;;37.00;6.25;;;;;;;11.85;100.00;98157.47;5053978;28;20060;-63
2024/04/06 02:19:48;;;;;;;29.92;6.80;;;;;;;11.83;100.00;98154.34;5064912;28;20514;-63
2024/04/06 02:22:14;;;;;;;30.13;7.10;;;;;;;11.80;100.00;98140.50;5063366;28;20052;-62
2024/04/06 02:24:40;;;;;;;31.20;7.07;;;;;;;11.77;100.00;98156.00;5063574;28;20052;-62
2024/04/06 02:27:07;;;;;;;32.97;5.85;;;;;;;11.75;100.00;98125.13;5064278;28;20402;-62
2024/04/06 02:29:34;;;;;;;41.55;8.65;;;;;;;11.73;100.00;98116.44;5065102;28;20048;-62
2024/04/06 02:32:01;;;;;;;40.40;7.95;;;;;;;11.72;100.00;98119.63;5046137;28;20048;-62
2024/04/06 02:34:27;;;;;;;39.42;6.15;;;;;;;11.69;100.00;98112.13;5064875;28;20414;-62
2024/04/06 02:36:53;;;;;;;38.85;6.47;;;;;;;11.69;100.00;98101.06;5064108;28;20040;-62
2024/04/06 02:39:19;;;;;;;36.70;8.35;;;;;;;11.68;100.00;98107.75;5064599;28;20056;-62
2024/04/06 02:41:46;;;;;;;43.83;7.82;;;;;;;11.65;100.00;98092.75;5064972;28;20040;-62
2024/04/06 02:44:12;;;;;;;28.83;6.03;;;;;;;11.65;100.00;98103.06;5064735;28;20131;-62
2024/04/06 02:46:38;;;;;;;36.13;8.85;;;;;;;11.63;100.00;98079.31;5058476;28;20051;-62
2024/04/06 02:49:05;;;;;;;42.90;6.78;;;;;;;11.61;100.00;98081.72;5064763;28;20049;-63
2024/04/06 02:51:31;;;;;;;31.67;6.60;;;;;;;11.60;100.00;98085.69;5064407;28;20049;-62
2024/04/06 02:53:57;;;;;;;36.22;8.20;;;;;;;11.59;100.00;98067.50;5055233;28;20037;-62
2024/04/06 02:56:25;;;;;;;39.22;9.00;;;;;;;11.60;100.00;98080.16;5052462;28;20541;-62
2024/04/06 02:58:51;;;;;;;37.03;9.05;;;;;;;11.61;100.00;98072.63;5063442;28;20048;-62
2024/04/06 03:01:17;;;;;;;34.05;5.95;;;;;;;11.59;100.00;98075.81;5160482;22;20537;-63
2024/04/06 03:03:44;;;;;;;36.15;7.47;;;;;;;11.58;100.00;98045.75;5032148;28;20054;-63
2024/04/06 03:06:10;;;;;;;30.25;6.63;;;;;;;11.57;100.00;98038.63;5044477;28;20056;-63
2024/04/06 03:08:36;;;;;;;35.45;8.00;;;;;;;11.55;100.00;98024.41;5040785;28;20037;-63
2024/04/06 03:11:02;;;;;;;38.45;6.93;;;;;;;11.55;100.00;98010.56;5045815;28;20050;-63
2024/04/06 03:13:28;;;;;;;30.35;5.25;;;;;;;11.56;100.00;98029.56;5029923;28;20053;-65
2024/04/06 03:15:55;;;;;;;21.58;5.13;;;;;;;11.57;100.00;98006.16;5034036;28;20052;-63
2024/04/06 03:18:21;;;;;;;29.52;6.93;;;;;;;11.60;100.00;98021.16;5040703;28;20063;-62
2024/04/06 03:20:47;;;;;;;28.30;6.57;;;;;;;11.62;100.00;98040.97;5044043;28;20049;-62
2024/04/06 03:23:13;;;;;;;27.80;5.35;;;;;;;11.63;100.00;98009.25;5043694;28;20059;-63
2024/04/06 03:25:40;;;;;;;32.53;6.40;;;;;;;11.65;100.00;97986.69;5043311;28;20350;-63
2024/04/06 03:28:07;;;;;;;37.08;8.15;;;;;;;11.67;100.00;97984.25;5039266;28;20050;-63
2024/04/06 03:30:33;;;;;;;27.17;6.18;;;;;;;11.70;100.00;98006.44;5047234;28;20053;-63
2024/04/06 03:32:59;;;;;;;27.42;8.15;;;;;;;11.73;100.00;98005.56;5043643;28;20060;-63
2024/04/06 03:35:26;;;;;;;28.25;5.80;;;;;;;11.75;100.00;97981.00;5036246;28;20063;-63
2024/04/06 03:37:52;;;;;;;26.58;5.63;;;;;;;11.78;100.00;97985.69;5032686;28;20057;-62
2024/04/06 03:40:18;;;;;;;35.83;6.57;;;;;;;11.80;100.00;97971.41;5040463;28;20052;-63
2024/04/06 03:42:56;;;;;;;38.97;6.53;;;;;;;11.81;100.00;97956.38;5042721;28;20226;-64
2024/04/06 03:45:23;;;;;;;24.75;6.43;;;;;;;11.82;100.00;97913.56;5047547;28;20048;-62
2024/04/06 03:47:50;;;;;;;28.95;5.43;;;;;;;11.81;100.00;97934.94;5045399;28;20041;-62
2024/04/06 03:50:18;;;;;;;33.72;6.22;;;;;;;11.82;100.00;97919.09;5047127;28;20454;-63
2024/04/06 03:52:45;;;;;;;28.13;6.03;;;;;;;11.84;100.00;97927.78;5043782;28;20695;-63
2024/04/06 03:55:11;;;;;;;26.65;5.47;;;;;;;11.87;100.00;97933.28;5038281;28;20056;-64
2024/04/06 03:57:37;;;;;;;24.23;5.38;;;;;;;11.92;100.00;97940.31;5036994;28;20045;-63
2024/04/06 04:00:08;;;;;;;15.90;5.93;;;;;;;11.96;100.00;97929.97;5034858;28;20415;-63
2024/04/06 04:02:37;;;;;;;30.33;5.85;;;;;;;11.99;100.00;97909.72;5039458;28;20065;-63
2024/04/06 04:05:04;;;;;;;21.92;5.20;;;;;;;12.03;100.00;97902.09;5039731;28;20499;-63
2024/04/06 04:07:32;;;;;;;19.45;5.53;;;;;;;12.05;100.00;97888.59;5043292;28;20053;-63
2024/04/06 04:10:01;;;;;;;24.92;6.50;;;;;;;12.07;100.00;97886.19;5040521;28;20048;-63
2024/04/06 04:12:28;;;;;;;25.52;4.90;;;;;;;12.10;100.00;97901.97;5046139;28;20049;-63
2024/04/06 04:14:55;;;;;;;25.58;4.78;;;;;;;12.12;100.00;97921.75;5046071;28;20060;-63
2024/04/06 04:17:21;;;;;;;15.40;4.25;;;;;;;12.17;100.00;97921.28;5046659;28;20067;-64
2024/04/06 04:19:47;;;;;;;18.15;3.55;;;;;;;12.24;100.00;97912.81;5042586;28;20560;-63
2024/04/06 04:22:14;;;;;;;30.85;7.88;;;;;;;12.30;100.00;97888.91;5041194;28;20045;-63
2024/04/06 04:24:41;;;;;;;32.08;5.15;;;;;;;12.34;100.00;97888.88;5035949;28;20041;-63
2024/04/06 04:27:08;;;;;;;14.10;4.10;;;;;;;12.34;100.00;97878.53;5041301;28;20052;-62
2024/04/06 04:29:34;;;;;;;22.27;4.90;;;;;;;12.35;100.00;97879.31;5032693;28;20049;-63
2024/04/06 04:32:01;;;;;;;15.32;4.93;;;;;;;12.34;100.00;97878.53;5045447;28;20044;-63
2024/04/06 04:34:27;;;;;;;24.05;4.07;;;;;;;12.36;100.00;97881.69;5040586;28;20610;-63
2024/04/06 04:36:55;;;;;;;17.42;3.95;;;;;;;12.42;100.00;97896.59;5045053;28;20037;-63
2024/04/06 04:39:22;;;;;;;27.08;4.05;;;;;;;12.49;100.00;97868.72;5046486;28;20048;-63
2024/04/06 04:41:48;;;;;;;18.73;4.70;;;;;;;12.55;100.00;97852.38;5040657;28;20045;-63
2024/04/06 04:44:15;;;;;;;24.98;6.65;;;;;;;12.56;100.00;97871.34;5039372;28;20052;-63
2024/04/06 04:46:41;;;;;;;17.95;6.60;;;;;;;12.57;100.00;97856.28;5036826;28;20594;-63
2024/04/06 04:49:08;;;;;;;20.38;4.10;;;;;;;12.56;100.00;97868.56;5043858;28;20080;-63
2024/04/06 04:51:34;;;;;;;20.08;4.40;;;;;;;12.55;100.00;97849.59;5036929;28;20060;-63
2024/04/06 04:54:00;;;;;;;23.98;4.57;;;;;;;12.57;100.00;97839.63;5040360;28;20045;-63
2024/04/06 04:56:26;;;;;;;18.95;4.93;;;;;;;12.60;100.00;97824.84;5035542;28;20060;-63
2024/04/06 04:58:53;;;;;;;25.77;4.80;;;;;;;12.60;100.00;97851.84;5026425;28;20510;-63
2024/04/06 05:01:19;;;;;;;17.38;4.63;;;;;;;12.60;100.00;97849.84;5033514;28;20049;-63
2024/04/06 05:03:45;;;;;;;21.70;4.55;;;;;;;12.62;100.00;97841.09;5045114;28;20036;-63
2024/04/06 05:06:11;;;;;;;18.48;3.63;;;;;;;12.62;100.00;97836.34;5042733;28;20059;-63
2024/04/06 05:08:38;;;;;;;20.63;3.75;;;;;;;12.60;100.00;97827.63;5018953;28;20053;-63
2024/04/06 05:11:04;;;;;;;23.45;6.10;;;;;;;12.60;100.00;97824.84;5028955;28;20052;-63
2024/04/06 05:13:31;;;;;;;14.80;4.05;;;;;;;12.61;100.00;97814.53;5043612;28;20055;-63
2024/04/06 05:15:58;;;;;;;25.20;5.43;;;;;;;12.63;100.00;97823.22;5038986;28;20049;-62
2024/04/06 05:18:24;;;;;;;22.70;3.97;;;;;;;12.63;100.00;97835.09;5028430;28;20478;-64
2024/04/06 05:20:51;;;;;;;17.98;3.45;;;;;;;12.66;100.00;97823.16;5033790;28;20050;-63
2024/04/06 05:23:18;;;;;;;19.65;5.45;;;;;;;12.68;100.00;97790.19;5027202;28;20041;-63
2024/04/06 05:25:50;;;;;;;28.25;4.55;;;;;;;12.68;100.00;97779.09;5042690;28;20060;-63
2024/04/06 05:28:17;;;;;;;22.27;5.32;;;;;;;12.69;100.00;97799.31;5044135;28;20044;-63
2024/04/06 05:30:47;;;;;;;24.10;4.28;;;;;;;12.68;100.00;97783.88;5044002;28;20053;-63
2024/04/06 05:33:15;;;;;;;17.90;5.35;;;;;;;12.66;100.00;97802.94;5040664;28;20048;-63
2024/04/06 05:35:42;;;;;;;16.98;5.15;;;;;;;12.64;100.00;97805.38;5036726;28;20056;-63
2024/04/06 05:38:08;;;;;;;18.90;4.97;;;;;;;12.63;100.00;97776.03;5043176;28;20049;-63
2024/04/06 05:40:42;;;;;;;25.80;4.07;;;;;;;12.65;100.00;97771.66;5035390;28;20049;-62
2024/04/06 05:43:09;;;;;;;17.10;3.20;;;;;;;12.67;100.00;97780.31;5039183;28;20053;-63
2024/04/06 05:45:38;;;;;;;18.35;3.75;;;;;;;12.68;100.00;97779.09;5043305;28;20041;-63
2024/04/06 05:48:05;;;;;;;14.82;4.70;;;;;;;12.68;100.00;97748.56;5040005;28;20065;-63
2024/04/06 05:50:37;;;;;;;17.08;3.67;;;;;;;12.67;100.00;97749.78;5032260;28;20406;-63
2024/04/06 05:53:04;;;;;;;16.33;3.88;;;;;;;12.67;100.00;97719.25;5037508;28;20521;-63
2024/04/06 05:55:31;;;;;;;23.02;4.13;;;;;;;12.66;100.00;97705.78;5029159;28;20048;-63
2024/04/06 05:57:59;;;;;;;24.73;5.40;;;;;;;12.67;100.00;97701.81;5045768;28;20037;-63
2024/04/06 06:00:26;;;;;;;22.13;4.60;;;;;;;12.66;100.00;97700.25;5039025;28;20041;-64
2024/04/06 06:02:54;;;;;;;24.55;5.03;;;;;;;12.64;100.00;97692.34;5037077;28;20049;-64
2024/04/06 06:05:20;;;;;;;18.08;4.75;;;;;;;12.61;100.00;97664.69;5044757;28;20056;-63
2024/04/06 06:07:47;;;;;;;15.40;3.38;;;;;;;12.59;100.00;97647.69;5032898;28;20055;-63
2024/04/06 06:10:15;;;;;;;23.10;4.22;;;;;;;12.54;100.00;97634.34;5044302;28;20052;-63
2024/04/06 06:12:41;;;;;;;20.25;4.30;;;;;;;12.51;100.00;97660.97;5044570;28;20053;-63
2024/04/06 06:15:08;;;;;;;17.77;4.88;;;;;;;12.48;99.88;97672.91;5033710;28;20045;-63
2024/04/06 06:17:34;;;;;;;21.75;5.85;;;;;;;12.47;99.72;97679.66;5038223;28;20076;-63
2024/04/06 06:20:01;;;;;;;20.85;3.28;;;;;;;12.45;99.25;97679.31;5037158;28;20046;-63
2024/04/06 06:22:30;;;;;;;23.23;4.72;;;;;;;12.44;99.22;97675.00;5038776;28;20454;-63
2024/04/06 06:24:56;;;;;;;18.77;3.90;;;;;;;12.42;98.84;97674.63;5032949;28;20040;-63
2024/04/06 06:27:23;;;;;;;20.50;4.95;;;;;;;12.40;98.71;97667.97;5032003;28;20053;-62
2024/04/06 06:29:50;;;;;;;19.15;5.35;;;;;;;12.39;98.38;97653.31;5034021;28;20053;-63
2024/04/06 06:32:16;;;;;;;17.20;3.80;;;;;;;12.36;98.41;97684.72;5039682;28;20541;-63
2024/04/06 06:34:43;;;;;;;19.58;4.10;;;;;;;12.35;98.07;97665.69;5039334;28;20083;-63
2024/04/06 06:37:10;;;;;;;22.15;3.78;;;;;;;12.35;97.81;97679.56;5044612;28;20060;-62
2024/04/06 06:39:36;;;;;;;16.27;4.07;;;;;;;12.34;97.66;97667.69;5036287;28;20046;-63
2024/04/06 06:42:03;;;;;;;22.05;3.70;;;;;;;12.36;97.61;97701.34;5039732;28;20439;-63
2024/04/06 06:44:29;;;;;;;16.02;4.30;;;;;;;12.36;97.31;97693.03;5033904;28;20105;-63
2024/04/06 06:46:55;;;;;;;16.95;4.28;;;;;;;12.37;97.23;97683.47;5030011;28;20056;-63
2024/04/06 06:49:22;;;;;;;14.95;3.22;;;;;;;12.37;97.12;97683.47;5040466;28;22456;-63
2024/04/06 06:51:49;;;;;;;16.88;3.10;;;;;;;12.38;96.45;97700.91;5024832;28;20049;-63
2024/04/06 06:54:15;;;;;;;13.20;2.70;;;;;;;12.40;96.62;97693.72;5036918;28;20048;-63
2024/04/06 06:56:41;;;;;;;16.20;2.92;;;;;;;12.42;96.46;97713.47;5044812;28;20514;-63
2024/04/06 06:59:07;;;;;;;12.95;3.08;;;;;;;12.42;96.27;97709.91;5032156;28;20096;-63
2024/04/06 07:01:33;;;;;;;7.78;2.90;;;;;;;12.38;96.38;97696.16;5034750;28;20057;-63
2024/04/06 07:04:00;;;;;;;12.23;3.33;;;;;;;12.34;96.42;97672.47;5038012;28;20399;-64
2024/04/06 07:06:26;;;;;;;10.73;2.33;;;;;;;12.29;95.95;97637.69;5036730;28;20049;-63
2024/04/06 07:08:53;;;;;;;11.25;2.03;;;;;;;12.25;95.81;97606.50;5042136;28;20057;-63
2024/04/06 07:11:19;;;;;;;10.30;3.13;;;;;;;12.25;95.59;97553.78;5043527;28;20495;-63
2024/04/06 07:13:45;;;;;;;16.00;3.53;;;;;;;12.27;94.81;97556.91;5034069;28;20045;-63
2024/04/06 07:16:13;;;;;;;9.15;2.28;;;;;;;12.30;94.71;97560.81;5042876;28;20063;-63
2024/04/06 07:18:40;;;;;;;9.95;2.33;;;;;;;12.35;94.07;97572.16;5038967;28;20139;-63
2024/04/06 07:21:08;;;;;;;6.47;1.60;;;;;;;12.37;93.85;97578.06;5039678;28;20599;-63
2024/04/06 07:23:34;;;;;;;8.73;2.53;;;;;;;12.41;93.56;97595.41;5042789;28;20060;-63
2024/04/06 07:26:01;;;;;;;13.45;2.47;;;;;;;12.45;93.84;97598.84;5041902;28;20072;-63
2024/04/06 07:28:27;;;;;;;15.50;3.47;;;;;;;12.55;94.06;97616.47;5038461;28;20450;-62
2024/04/06 07:30:53;;;;;;;11.95;2.95;;;;;;;12.64;93.84;97603.53;5031397;28;20384;-63
2024/04/06 07:33:19;;;;;;;11.68;3.08;;;;;;;12.71;93.64;97619.22;5019100;28;20053;-62
2024/04/06 07:35:48;;;;;;;16.77;4.18;;;;;;;12.73;93.58;97589.06;5044043;28;20041;-62
2024/04/06 07:38:14;;;;;;;11.85;2.88;;;;;;;12.79;93.49;97617.81;5040739;28;20056;-62
2024/04/06 07:40:41;;;;;;;17.88;4.25;;;;;;;12.83;93.21;97611.00;5023912;28;20053;-63
2024/04/06 07:43:07;;;;;;;12.52;3.42;;;;;;;12.84;93.06;97618.09;5042109;28;20057;-63
2024/04/06 07:45:34;;;;;;;28.52;3.88;;;;;;;12.90;93.40;97639.75;5047897;28;20055;-63
2024/04/06 07:48:01;;;;;;;15.15;3.50;;;;;;;12.98;93.62;97624.47;5048160;28;20061;-62
2024/04/06 07:50:27;;;;;;;9.02;4.13;;;;;;;13.03;93.08;97623.94;5031617;28;20053;-63
2024/04/06 07:52:53;;;;;;;15.35;2.80;;;;;;;13.03;92.94;97635.06;5046762;28;20064;-62
2024/04/06 07:55:21;;;;;;;16.23;4.22;;;;;;;13.02;92.86;97644.63;5036896;28;20053;-61
2024/04/06 07:57:47;;;;;;;18.38;3.03;;;;;;;13.03;92.92;97632.28;5045269;28;20049;-62
2024/04/06 08:00:14;;;;;;;15.30;2.53;;;;;;;12.98;93.06;97610.59;5047731;28;20060;-62
2024/04/06 08:02:41;;;;;;;15.52;3.28;;;;;;;12.96;92.98;97624.16;5042271;28;20066;-64
2024/04/06 08:05:08;;;;;;;8.23;3.78;;;;;;;12.95;92.58;97617.03;5037854;28;20052;-61
2024/04/06 08:07:34;;;;;;;17.55;3.85;;;;;;;12.94;92.49;97627.38;5032358;28;20041;-62
2024/04/06 08:10:21;;;;;;;13.60;3.53;;;;;;;12.93;92.19;97616.69;5041467;28;20056;-60
2024/04/06 08:12:49;;;;;;;18.33;3.38;;;;;;;12.88;91.68;97634.66;5027868;28;20061;-59
2024/04/06 08:15:16;;;;;;;18.95;4.13;;;;;;;12.88;91.47;97611.66;5044051;28;20506;-60
2024/04/06 08:17:50;;;;;;;17.88;4.00;;;;;;;12.87;91.45;97615.69;5030454;28;20060;-61
2024/04/06 08:20:17;;;;;;;17.42;3.50;;;;;;;12.82;91.17;97617.75;5044672;28;20699;-60
2024/04/06 08:22:43;;;;;;;14.52;3.47;;;;;;;12.79;90.96;97621.38;5047632;28;20056;-61
2024/04/06 08:25:12;;;;;;;24.83;4.85;;;;;;;12.77;90.88;97621.06;5048093;28;20056;-61
2024/04/06 08:27:39;;;;;;;25.77;5.30;;;;;;;12.78;90.71;97622.63;5047651;28;20650;-60
2024/04/06 08:30:12;;;;;;;17.85;3.95;;;;;;;12.80;90.84;97622.19;5037720;28;20053;-60
2024/04/06 08:32:43;;;;;;;28.35;5.60;;;;;;;12.83;90.62;97633.19;5039914;28;20056;-61
2024/04/06 08:35:14;;;;;;;21.57;4.03;;;;;;;12.86;90.46;97614.88;5047025;28;20048;-60
2024/04/06 08:37:43;;;;;;;13.87;3.40;;;;;;;12.86;90.49;97626.00;5047285;28;20064;-60
2024/04/06 08:40:10;;;;;;;14.38;3.70;;;;;;;12.82;90.00;97630.84;5045018;28;20056;-60
2024/04/06 08:42:40;;;;;;;19.88;3.47;;;;;;;12.78;90.59;97639.28;5046082;28;20053;-60
2024/04/06 08:45:13;;;;;;;18.83;3.80;;;;;;;12.76;90.39;97650.00;5046954;28;20056;-60
2024/04/06 08:47:40;;;;;;;24.17;6.88;;;;;;;12.75;90.50;97626.25;5046996;28;20053;-62
2024/04/06 08:50:08;;;;;;;20.10;5.35;;;;;;;12.76;90.39;97619.47;5046765;28;20049;-60
2024/04/06 08:52:36;;;;;;;21.38;4.55;;;;;;;12.75;89.99;97619.94;5041362;28;20060;-61
2024/04/06 08:55:03;;;;;;;17.33;5.78;;;;;;;12.77;90.03;97615.50;5045496;28;20044;-60
2024/04/06 08:57:33;;;;;;;18.30;4.95;;;;;;;12.83;89.96;97638.75;5047025;28;20550;-60
2024/04/06 09:00:06;;;;;;;21.13;4.55;;;;;;;12.89;89.57;97608.47;5046662;28;20041;-60
2024/04/06 09:02:34;;;;;;;31.23;4.15;;;;;;;12.94;89.09;97618.25;5046662;28;20514;-61
2024/04/06 09:05:00;;;;;;;21.50;4.07;;;;;;;12.97;89.01;97595.16;5041727;28;20049;-60
2024/04/06 09:07:27;;;;;;;17.17;3.38;;;;;;;12.98;88.83;97603.06;5036182;28;20056;-59
2024/04/06 09:09:54;;;;;;;16.15;3.28;;;;;;;13.04;89.01;97597.75;5044767;28;20534;-60
2024/04/06 09:12:20;;;;;;;17.95;4.47;;;;;;;13.12;89.03;97593.59;5040352;28;20044;-61
2024/04/06 09:14:47;;;;;;;17.00;4.03;;;;;;;13.22;88.76;97606.41;5045821;28;20099;-61
2024/04/06 09:17:15;;;;;;;23.40;4.60;;;;;;;13.34;88.69;97605.69;5026505;28;20419;-62
2024/04/06 09:19:42;;;;;;;13.65;3.10;;;;;;;13.78;89.18;97582.53;5039003;28;20061;-61
2024/04/06 09:22:09;;;;;;;17.00;5.13;;;;;;;14.97;87.16;97571.53;5035921;28;20061;-61
2024/04/06 09:24:37;;;;;;;20.70;4.25;;;;;;;15.28;85.03;97582.75;5046097;28;20063;-62
2024/04/06 09:27:16;;;;;;;17.88;4.18;;;;;;;15.51;85.03;97585.16;5045011;28;20044;-61
2024/04/06 09:29:48;;;;;;;14.05;3.40;;;;;;;16.03;84.11;97583.56;5031548;28;20071;-62
2024/04/06 09:32:19;;;;;;;14.13;3.10;;;;;;;15.95;83.49;97573.91;5046393;28;20052;-60
2024/04/06 09:34:52;;;;;;;16.35;3.47;;;;;;;15.99;82.79;97580.16;5046116;28;20072;-61
2024/04/06 09:37:27;;;;;;;13.73;4.00;;;;;;;15.82;82.28;97562.84;5039181;28;20058;-60
2024/04/06 09:39:56;;;;;;;25.13;4.55;;;;;;;15.68;82.15;97560.59;5038147;28;20442;-60
2024/04/06 09:42:23;;;;;;;17.45;3.47;;;;;;;15.53;81.76;97559.59;5029876;28;20106;-60
2024/04/06 09:44:51;;;;;;;16.25;5.03;;;;;;;15.45;82.16;97569.41;5045673;28;20052;-60
2024/04/06 09:47:21;;;;;;;11.00;3.10;;;;;;;15.63;82.25;97566.78;5033235;28;20042;-60
2024/04/06 09:49:49;;;;;;;15.07;3.58;;;;;;;15.88;81.43;97561.03;5043244;28;20499;-61
2024/04/06 09:52:20;;;;;;;12.43;3.38;;;;;;;16.03;80.59;97594.72;5041598;28;20045;-60
2024/04/06 09:54:47;;;;;;;17.10;5.00;;;;;;;15.76;79.43;97561.88;5039285;28;20056;-60
2024/04/06 09:57:14;;;;;;;19.00;4.05;;;;;;;15.77;79.12;97558.66;5040738;28;20064;-61
2024/04/06 09:59:41;;;;;;;20.35;3.47;;;;;;;15.67;78.18;97553.47;5042313;28;20040;-61
2024/04/06 10:02:07;;;;;;;18.10;3.63;;;;;;;15.58;78.62;97540.25;5045814;28;20055;-61
2024/04/06 10:04:36;;;;;;;18.73;3.42;;;;;;;15.99;78.72;97513.94;5042074;28;20044;-60
2024/04/06 10:07:04;;;;;;;20.52;5.80;;;;;;;16.32;77.07;97579.19;5037214;28;20041;-60
2024/04/06 10:09:31;;;;;;;15.20;3.50;;;;;;;16.47;75.54;97564.66;5032632;28;20411;-60
2024/04/06 10:11:59;;;;;;;17.40;4.15;;;;;;;16.19;75.72;97561.78;5035989;28;20041;-60
2024/04/06 10:14:29;;;;;;;16.58;3.42;;;;;;;15.91;75.97;97562.91;5030591;28;20083;-62
2024/04/06 10:17:07;;;;;;;15.95;4.35;;;;;;;15.54;75.94;97558.38;5041812;28;20041;-61
2024/04/06 10:19:39;;;;;;;18.05;3.53;;;;;;;15.28;76.69;97571.63;5040051;28;20049;-60
2024/04/06 10:22:06;;;;;;;19.50;3.88;;;;;;;15.15;76.93;97556.97;5038549;28;20045;-60
2024/04/06 10:24:36;;;;;;;16.45;4.72;;;;;;;15.53;77.29;97554.00;5038835;28;20049;-61
2024/04/06 10:27:03;;;;;;;30.08;5.93;;;;;;;15.77;75.74;97552.28;5044593;28;20048;-60
2024/04/06 10:29:34;;;;;;;16.95;4.93;;;;;;;16.31;75.60;97538.56;5033831;28;20046;-60
2024/04/06 10:32:00;;;;;;;24.98;4.72;;;;;;;17.15;73.55;97550.19;5034505;28;20049;-60
2024/04/06 10:34:26;;;;;;;29.05;4.45;;;;;;;17.62;71.53;97542.06;5020459;28;20052;-60
2024/04/06 10:36:52;;;;;;;18.77;3.60;;;;;;;18.01;70.03;97573.06;5033881;28;20056;-60
2024/04/06 10:39:19;;;;;;;17.33;4.13;;;;;;;18.43;68.60;97564.63;5028857;28;20053;-60
2024/04/06 10:41:45;;;;;;;17.63;4.68;;;;;;;18.80;67.61;97594.81;5033354;28;20064;-61
2024/04/06 10:44:11;;;;;;;14.93;3.58;;;;;;;19.02;66.34;97576.91;5044223;28;20040;-61
2024/04/06 10:46:38;;;;;;;11.82;2.95;;;;;;;19.00;65.33;97625.06;5036936;28;20064;-62
2024/04/06 10:49:15;;;;;;;14.50;3.45;;;;;;;18.70;64.73;97620.56;5026199;28;20048;-61
2024/04/06 10:51:41;;;;;;;12.10;2.28;;;;;;;18.52;64.35;97612.25;5044107;28;20057;-61
2024/04/06 10:54:08;;;;;;;15.63;3.03;;;;;;;17.79;64.61;97618.03;5037112;28;20064;-62
2024/04/06 10:56:36;;;;;;;16.35;3.70;;;;;;;17.00;65.90;97619.88;5039626;28;20049;-62
2024/04/06 10:59:04;;;;;;;12.52;2.53;;;;;;;16.63;67.96;97628.66;5041919;28;20056;-63
2024/04/06 11:01:34;;;;;;;14.90;2.85;;;;;;;16.51;68.09;97632.31;5044555;28;20069;-61
2024/04/06 11:04:03;;;;;;;17.80;4.20;;;;;;;16.34;68.44;97629.75;5044115;28;20066;-61
2024/04/06 11:06:30;;;;;;;18.13;3.25;;;;;;;16.06;68.71;97635.69;5038863;28;20045;-61
2024/04/06 11:09:00;;;;;;;12.93;3.33;;;;;;;15.76;68.80;97615.66;5040968;28;20045;-61
2024/04/06 11:11:28;;;;;;;12.88;2.88;;;;;;;15.68;69.53;97622.75;5037545;28;20052;-62
2024/04/06 11:13:57;;;;;;;14.02;4.13;;;;;;;15.63;69.81;97628.13;5036026;28;20056;-61
2024/04/06 11:16:25;;;;;;;16.55;4.78;;;;;;;15.57;70.13;97629.94;5043634;28;20040;-62
2024/04/06 11:18:51;;;;;;;12.00;3.58;;;;;;;15.55;70.18;97630.41;5043626;28;20049;-61
2024/04/06 11:21:18;;;;;;;10.38;2.58;;;;;;;15.51;70.68;97623.41;5043556;28;20041;-61